createdAt,value
2022-10-04T00:00:09.805Z,8.17
2022-10-04T00:02:39.064Z,8.20
2022-10-04T00:05:09.822Z,8.13
2022-10-04T00:07:45.632Z,8.20
2022-10-04T00:10:22.002Z,8.08
2022-10-04T00:12:53.654Z,7.94
2022-10-04T00:15:28.518Z,7.92
2022-10-04T00:18:04.317Z,7.79
2022-10-04T00:20:59.387Z,7.87
2022-10-04T00:23:43.331Z,7.97
2022-10-04T00:26:17.612Z,8.09
2022-10-04T00:28:47.904Z,8.14
2022-10-04T00:31:27.270Z,8.18
2022-10-04T00:34:01.483Z,8.12
2022-10-04T00:36:42.473Z,8.19
2022-10-04T00:39:42.275Z,8.10
2022-10-04T00:42:55.091Z,8.22
2022-10-04T00:45:47.140Z,8.19
2022-10-04T00:48:37.219Z,8.01
2022-10-04T00:51:20.672Z,8.03
2022-10-04T00:53:58.377Z,8.12
2022-10-04T00:56:31.857Z,8.04
2022-10-04T00:59:20.039Z,8.14
2022-10-04T01:01:52.796Z,8.20
2022-10-04T01:04:33.759Z,8.25
2022-10-04T01:07:04.654Z,8.26
2022-10-04T01:09:37.384Z,8.26
2022-10-04T01:12:12.363Z,8.36
2022-10-04T01:14:52.339Z,8.22
2022-10-04T01:17:21.251Z,8.14
2022-10-04T01:19:55.287Z,8.09
2022-10-04T01:22:37.164Z,7.68
2022-10-04T01:25:06.589Z,7.68
2022-10-04T01:27:45.415Z,7.70
2022-10-04T01:30:16.979Z,7.70
2022-10-04T01:32:45.733Z,7.70
2022-10-04T01:35:19.379Z,7.76
2022-10-04T01:37:49.629Z,7.70
2022-10-04T01:40:19.276Z,7.86
2022-10-04T01:43:00.364Z,7.89
2022-10-04T01:45:36.647Z,7.77
2022-10-04T01:48:09.461Z,7.74
2022-10-04T01:50:43.287Z,7.63
2022-10-04T01:53:20.138Z,7.67
2022-10-04T01:55:53.215Z,7.83
2022-10-04T01:58:25.523Z,7.69
2022-10-04T02:00:58.806Z,7.80
2022-10-04T02:03:33.739Z,7.81
2022-10-04T02:06:05.800Z,7.63
2022-10-04T02:08:39.820Z,7.38
2022-10-04T02:11:08.991Z,7.43
2022-10-04T02:13:40.202Z,7.54
2022-10-04T02:16:12.638Z,7.46
2022-10-04T02:18:44.267Z,7.38
2022-10-04T02:21:15.911Z,7.45
2022-10-04T02:23:47.392Z,7.47
2022-10-04T02:26:15.582Z,7.52
2022-10-04T02:28:44.606Z,7.42
2022-10-04T02:31:30.564Z,7.47
2022-10-04T02:34:01.573Z,7.54
2022-10-04T02:36:31.167Z,7.59
2022-10-04T02:39:07.543Z,7.63
2022-10-04T02:41:41.754Z,7.64
2022-10-04T02:44:18.057Z,7.65
2022-10-04T02:46:51.930Z,7.68
2022-10-04T02:49:30.090Z,7.71
2022-10-04T02:52:03.467Z,7.67
2022-10-04T02:54:41.216Z,7.53
2022-10-04T02:57:17.424Z,7.54
2022-10-04T02:59:45.820Z,7.48
2022-10-04T03:02:29.897Z,7.54
2022-10-04T03:05:02.956Z,7.59
2022-10-04T03:07:34.083Z,7.55
2022-10-04T03:10:09.044Z,7.68
2022-10-04T03:12:39.341Z,7.62
2022-10-04T03:15:10.159Z,7.45
2022-10-04T03:17:38.993Z,7.47
2022-10-04T03:20:08.078Z,7.53
2022-10-04T03:22:36.681Z,7.55
2022-10-04T03:25:12.758Z,7.45
2022-10-04T03:27:41.756Z,7.44
2022-10-04T03:30:15.770Z,7.44
2022-10-04T03:32:44.752Z,7.33
2022-10-04T03:35:24.226Z,7.45
2022-10-04T03:37:52.755Z,7.48
2022-10-04T03:40:27.396Z,7.43
2022-10-04T03:42:56.385Z,7.50
2022-10-04T03:45:25.825Z,7.59
2022-10-04T03:47:56.074Z,7.68
2022-10-04T03:50:28.260Z,7.64
2022-10-04T03:53:00.266Z,7.58
2022-10-04T03:55:35.882Z,7.67
2022-10-04T03:58:06.911Z,7.68
2022-10-04T04:00:41.361Z,7.71
2022-10-04T04:03:17.340Z,7.70
2022-10-04T04:05:54.877Z,7.74
2022-10-04T04:08:31.224Z,7.77
2022-10-04T04:11:04.443Z,7.76
2022-10-04T04:13:41.900Z,7.70
2022-10-04T04:16:11.730Z,7.69
2022-10-04T04:18:44.552Z,7.75
2022-10-04T04:21:18.878Z,7.64
2022-10-04T04:23:51.104Z,7.70
2022-10-04T04:26:28.808Z,7.66
2022-10-04T04:29:04.751Z,7.67
2022-10-04T04:31:38.181Z,7.61
2022-10-04T04:34:16.803Z,7.79
2022-10-04T04:36:46.787Z,7.72
2022-10-04T04:39:37.171Z,7.63
2022-10-04T04:42:16.690Z,7.81
2022-10-04T04:44:50.928Z,7.80
2022-10-04T04:47:30.033Z,7.88
2022-10-04T04:50:05.352Z,7.84
2022-10-04T04:52:34.576Z,7.91
2022-10-04T04:55:04.493Z,8.01
2022-10-04T04:57:35.505Z,8.04
2022-10-04T05:00:04.249Z,8.07
2022-10-04T05:02:36.859Z,8.17
2022-10-04T05:05:30.512Z,8.11
2022-10-04T05:08:14.193Z,8.07
2022-10-04T05:10:49.307Z,8.16
2022-10-04T05:13:21.972Z,8.20
2022-10-04T05:15:55.069Z,8.14
2022-10-04T05:18:32.512Z,8.15
2022-10-04T05:21:07.486Z,8.29
2022-10-04T05:23:36.613Z,8.19
2022-10-04T05:26:06.562Z,8.22
2022-10-04T05:28:36.860Z,8.22
2022-10-04T05:31:22.316Z,8.16
2022-10-04T05:33:53.091Z,8.20
2022-10-04T05:36:40.994Z,8.26
2022-10-04T05:39:17.059Z,8.24
2022-10-04T05:41:57.084Z,8.21
2022-10-04T05:44:29.224Z,8.25
2022-10-04T05:47:01.504Z,8.22
2022-10-04T05:49:35.047Z,8.10
2022-10-04T05:52:12.736Z,8.11
2022-10-04T05:54:41.587Z,8.09
2022-10-04T05:57:32.565Z,8.11
2022-10-04T06:00:18.544Z,8.10
2022-10-04T06:03:17.334Z,8.02
2022-10-04T06:05:58.014Z,8.12
2022-10-04T06:08:40.934Z,8.18
2022-10-04T06:11:23.520Z,8.10
2022-10-04T06:14:30.773Z,8.15
2022-10-04T06:17:22.329Z,8.30
2022-10-04T06:20:11.433Z,8.37
2022-10-04T06:22:45.957Z,8.33
2022-10-04T06:25:19.883Z,8.35
2022-10-04T06:27:54.587Z,8.49
2022-10-04T06:30:23.290Z,8.52
2022-10-04T06:33:14.440Z,8.52
2022-10-04T06:36:29.908Z,8.65
2022-10-04T06:39:22.964Z,8.75
2022-10-04T06:42:40.119Z,8.69
2022-10-04T06:45:23.568Z,8.87
2022-10-04T06:48:22.315Z,8.81
2022-10-04T06:50:55.775Z,8.91
2022-10-04T06:53:33.840Z,9.02
2022-10-04T06:56:24.491Z,9.03
2022-10-04T06:59:37.444Z,8.76
2022-10-04T07:02:11.195Z,8.95
2022-10-04T07:05:07.642Z,9.21
2022-10-04T07:07:38.600Z,9.21
2022-10-04T07:10:27.550Z,9.25
2022-10-04T07:13:07.270Z,9.19
2022-10-04T07:15:50.275Z,9.33
2022-10-04T07:18:25.467Z,9.24
2022-10-04T07:21:04.693Z,9.39
2022-10-04T07:23:40.742Z,9.47
2022-10-04T07:26:21.115Z,9.52
2022-10-04T07:29:08.370Z,9.61
2022-10-04T07:31:38.469Z,9.56
2022-10-04T07:34:13.326Z,9.45
2022-10-04T07:36:48.040Z,9.48
2022-10-04T07:39:20.178Z,9.52
2022-10-04T07:41:53.747Z,9.59
2022-10-04T07:44:36.324Z,9.66
2022-10-04T07:47:16.531Z,9.71
2022-10-04T07:49:45.471Z,9.91
2022-10-04T07:52:48.399Z,9.77
2022-10-04T07:55:29.143Z,10.05
2022-10-04T07:58:09.700Z,10.07
2022-10-04T08:00:48.816Z,10.13
2022-10-04T08:03:32.315Z,10.04
2022-10-04T08:06:10.641Z,10.28
2022-10-04T08:08:55.978Z,10.35
2022-10-04T08:11:35.801Z,10.34
2022-10-04T08:14:18.599Z,10.47
2022-10-04T08:16:55.624Z,10.49
2022-10-04T08:19:39.311Z,10.50
2022-10-04T08:22:24.148Z,10.67
2022-10-04T08:25:04.486Z,10.80
2022-10-04T08:28:12.163Z,10.93
2022-10-04T08:30:54.096Z,11.00
2022-10-04T08:33:36.970Z,11.13
2022-10-04T08:36:17.665Z,11.02
2022-10-04T08:38:50.381Z,11.23
2022-10-04T08:41:56.900Z,11.53
2022-10-04T08:45:08.104Z,11.85
2022-10-04T08:48:18.455Z,11.81
2022-10-04T08:51:28.120Z,11.51
2022-10-04T08:54:27.475Z,12.02
2022-10-04T08:57:32.987Z,12.19
2022-10-04T09:00:16.275Z,12.46
2022-10-04T09:03:24.137Z,12.54
2022-10-04T09:06:03.002Z,12.69
2022-10-04T09:09:11.757Z,12.92
2022-10-04T09:12:15.626Z,12.83
2022-10-04T09:15:12.821Z,12.56
2022-10-04T09:17:55.460Z,12.98
2022-10-04T09:20:38.935Z,13.08
2022-10-04T09:23:22.437Z,13.01
2022-10-04T09:26:06.511Z,13.11
2022-10-04T09:29:15.169Z,13.19
2022-10-04T09:32:32.592Z,13.54
2022-10-04T09:35:30.093Z,13.30
2022-10-04T09:38:23.320Z,13.37
2022-10-04T09:41:09.290Z,13.61
2022-10-04T09:44:15.392Z,13.88
2022-10-04T09:46:57.689Z,13.73
2022-10-04T09:49:48.354Z,13.95
2022-10-04T09:52:35.813Z,13.98
2022-10-04T09:55:19.563Z,14.11
2022-10-04T09:58:07.910Z,13.95
2022-10-04T10:00:41.809Z,14.64
2022-10-04T10:03:36.934Z,14.55
2022-10-04T10:06:48.906Z,13.62
2022-10-04T10:09:44.642Z,14.63
2022-10-04T10:12:48.463Z,14.53
2022-10-04T10:15:31.220Z,14.68
2022-10-04T10:18:15.903Z,14.68
2022-10-04T10:21:19.296Z,15.04
2022-10-04T10:24:13.177Z,15.05
2022-10-04T10:26:54.625Z,15.34
2022-10-04T10:29:50.943Z,15.41
2022-10-04T10:32:38.246Z,15.44
2022-10-04T10:35:30.644Z,15.27
2022-10-04T10:38:33.530Z,15.11
2022-10-04T10:41:32.399Z,15.85
2022-10-04T10:44:11.402Z,16.03
2022-10-04T10:46:51.473Z,16.34
2022-10-04T10:49:36.367Z,16.25
2022-10-04T10:52:45.018Z,16.67
2022-10-04T10:55:31.616Z,17.22
2022-10-04T10:58:48.601Z,16.50
2022-10-04T11:01:48.883Z,16.82
2022-10-04T11:04:40.485Z,17.29
2022-10-04T11:07:51.854Z,17.25
2022-10-04T11:10:51.752Z,16.55
2022-10-04T11:13:36.152Z,17.51
2022-10-04T11:16:44.601Z,17.85
2022-10-04T11:19:48.160Z,17.48
2022-10-04T11:22:49.646Z,17.07
2022-10-04T11:26:06.149Z,17.33
2022-10-04T11:28:47.037Z,17.89
2022-10-04T11:31:42.158Z,17.96
2022-10-04T11:34:31.776Z,18.18
2022-10-04T11:37:14.017Z,18.25
2022-10-04T11:40:18.162Z,18.60
2022-10-04T11:43:15.445Z,17.81
2022-10-04T11:46:10.745Z,18.50
2022-10-04T11:48:54.063Z,18.12
2022-10-04T11:52:02.067Z,18.35
2022-10-04T11:55:03.394Z,18.79
2022-10-04T11:57:39.883Z,18.31
2022-10-04T12:00:17.461Z,18.67
2022-10-04T12:03:11.908Z,18.73
2022-10-04T12:06:25.672Z,18.71
2022-10-04T12:09:05.474Z,19.02
2022-10-04T12:12:51.340Z,18.68
2022-10-04T12:15:53.203Z,18.98
2022-10-04T12:18:42.455Z,18.48
2022-10-04T12:21:39.264Z,18.38
2022-10-04T12:24:21.395Z,18.85
2022-10-04T12:27:20.242Z,18.97
2022-10-04T12:30:22.796Z,19.44
2022-10-04T12:33:10.102Z,18.88
2022-10-04T12:35:58.603Z,18.77
2022-10-04T12:38:48.284Z,18.98
2022-10-04T12:41:31.419Z,19.34
2022-10-04T12:44:11.431Z,19.31
2022-10-04T12:46:54.463Z,19.48
2022-10-04T12:49:39.261Z,19.96
2022-10-04T12:52:17.048Z,20.11
2022-10-04T12:54:47.976Z,19.90
2022-10-04T12:57:41.770Z,20.32
2022-10-04T13:00:22.500Z,20.14
2022-10-04T13:03:12.040Z,20.07
2022-10-04T13:05:48.844Z,19.65
2022-10-04T13:08:31.920Z,19.97
2022-10-04T13:11:23.805Z,20.10
2022-10-04T13:14:07.115Z,20.52
2022-10-04T13:19:50.666Z,20.75
2022-10-04T13:22:55.860Z,20.51
2022-10-04T13:25:47.542Z,19.70
2022-10-04T13:28:26.741Z,20.06
2022-10-04T13:31:02.556Z,19.78
2022-10-04T13:33:41.785Z,19.93
2022-10-04T13:36:18.241Z,20.06
2022-10-04T13:39:38.329Z,20.72
2022-10-04T13:42:24.890Z,20.72
2022-10-04T13:45:27.634Z,20.57
2022-10-04T13:48:18.168Z,20.85
2022-10-04T13:51:05.457Z,21.13
2022-10-04T13:54:01.074Z,21.50
2022-10-04T13:56:59.290Z,21.60
2022-10-04T13:59:41.253Z,20.96
2022-10-04T14:02:49.629Z,21.22
2022-10-04T14:05:39.763Z,20.69
2022-10-04T14:08:33.378Z,21.70
2022-10-04T14:11:37.173Z,22.14
2022-10-04T14:14:47.482Z,21.71
2022-10-04T14:17:45.336Z,21.53
2022-10-04T14:20:46.591Z,21.62
2022-10-04T14:23:45.750Z,21.59
2022-10-04T14:26:44.619Z,22.07
2022-10-04T14:29:48.719Z,22.40
2022-10-04T14:32:52.512Z,22.94
2022-10-04T14:35:27.766Z,22.17
2022-10-04T14:38:26.719Z,22.17
2022-10-04T14:41:28.348Z,22.28
2022-10-04T14:44:18.113Z,22.32
2022-10-04T14:47:00.749Z,22.85
2022-10-04T14:49:57.915Z,22.89
2022-10-04T14:52:52.429Z,22.82
2022-10-04T14:55:50.960Z,22.72
2022-10-04T14:58:24.446Z,22.94
2022-10-04T15:01:09.330Z,23.05
2022-10-04T15:03:49.600Z,24.05
2022-10-04T15:06:28.773Z,24.07
2022-10-04T15:09:27.726Z,24.07
2022-10-04T15:15:19.062Z,23.35
2022-10-04T15:18:02.088Z,23.44
2022-10-04T15:20:35.656Z,24.03
2022-10-04T15:23:16.450Z,24.43
2022-10-04T15:25:48.826Z,24.13
2022-10-04T15:28:40.708Z,23.62
2022-10-04T15:31:17.847Z,23.63
2022-10-04T15:33:59.812Z,23.95
2022-10-04T15:37:05.480Z,23.70
2022-10-04T15:40:05.063Z,24.06
2022-10-04T15:42:38.522Z,24.24
2022-10-04T15:45:32.494Z,23.63
2022-10-04T15:48:25.328Z,23.82
2022-10-04T15:51:04.609Z,24.43
2022-10-04T15:53:53.349Z,25.29
2022-10-04T15:56:34.456Z,25.71
2022-10-04T15:59:35.467Z,25.94
2022-10-04T16:02:27.104Z,26.05
2022-10-04T16:05:14.967Z,25.35
2022-10-04T16:08:26.040Z,25.20
2022-10-04T16:11:25.138Z,24.51
2022-10-04T16:14:11.027Z,22.23
2022-10-04T16:16:59.711Z,22.66
2022-10-04T16:19:56.492Z,21.74
2022-10-04T16:22:30.205Z,21.69
2022-10-04T16:25:01.260Z,21.56
2022-10-04T16:28:05.804Z,21.31
2022-10-04T16:30:40.063Z,21.60
2022-10-04T16:33:29.160Z,20.85
2022-10-04T16:36:12.231Z,20.47
2022-10-04T16:39:09.380Z,19.83
2022-10-04T16:41:44.470Z,19.47
2022-10-04T16:44:30.861Z,19.16
2022-10-04T16:47:04.099Z,19.13
2022-10-04T16:49:41.991Z,18.93
2022-10-04T16:52:24.832Z,18.60
2022-10-04T16:55:35.585Z,18.64
2022-10-04T16:58:50.624Z,18.74
2022-10-04T17:01:34.240Z,18.49
2022-10-04T17:04:17.630Z,18.41
2022-10-04T17:06:54.592Z,18.26
2022-10-04T17:09:31.464Z,18.21
2022-10-04T17:12:17.033Z,18.22
2022-10-04T17:14:59.252Z,17.97
2022-10-04T17:17:45.765Z,18.01
2022-10-04T17:20:27.321Z,17.91
2022-10-04T17:23:13.041Z,17.69
2022-10-04T17:25:51.046Z,17.72
2022-10-04T17:28:30.843Z,17.74
2022-10-04T17:31:10.759Z,17.69
2022-10-04T17:33:52.822Z,17.74
2022-10-04T17:36:35.515Z,17.68
2022-10-04T17:39:36.149Z,17.78
2022-10-04T17:42:24.829Z,17.59
2022-10-04T17:45:22.834Z,16.98
2022-10-04T17:48:17.605Z,17.11
2022-10-04T17:51:13.038Z,16.97
2022-10-04T17:54:02.902Z,16.72
2022-10-04T17:56:37.295Z,16.69
2022-10-04T17:59:12.684Z,16.78
2022-10-04T18:01:46.211Z,16.72
2022-10-04T18:04:21.105Z,16.62
2022-10-04T18:06:58.534Z,16.23
2022-10-04T18:09:35.770Z,16.27
2022-10-04T18:12:13.034Z,15.91
2022-10-04T18:14:58.992Z,15.79
2022-10-04T18:17:36.523Z,15.79
2022-10-04T18:20:32.707Z,15.79
2022-10-04T18:23:03.227Z,15.70
2022-10-04T18:25:34.385Z,15.65
2022-10-04T18:28:13.180Z,15.60
2022-10-04T18:31:00.854Z,15.54
2022-10-04T18:33:46.994Z,15.63
2022-10-04T18:36:19.716Z,15.49
2022-10-04T18:39:18.083Z,15.57
2022-10-04T18:41:55.713Z,15.53
2022-10-04T18:44:29.849Z,15.53
2022-10-04T18:47:02.791Z,15.52
2022-10-04T18:49:47.501Z,15.44
2022-10-04T18:52:31.174Z,15.40
2022-10-04T18:55:14.948Z,15.12
2022-10-04T18:58:05.927Z,14.95
2022-10-04T19:01:00.133Z,14.82
2022-10-04T19:03:42.730Z,14.82
2022-10-04T19:06:18.118Z,14.71
2022-10-04T19:08:58.184Z,14.53
2022-10-04T19:11:33.721Z,14.55
2022-10-04T19:14:11.115Z,14.56
2022-10-04T19:16:50.232Z,14.46
2022-10-04T19:22:27.846Z,14.24
2022-10-04T19:25:22.182Z,14.38
2022-10-04T19:27:54.064Z,14.29
2022-10-04T19:30:25.465Z,14.35
2022-10-04T19:33:17.555Z,14.18
2022-10-04T19:35:57.132Z,13.86
2022-10-04T19:38:38.400Z,13.96
2022-10-04T19:41:16.347Z,14.07
2022-10-04T19:43:53.466Z,14.10
2022-10-04T19:46:35.117Z,14.18
2022-10-04T19:49:05.254Z,14.00
2022-10-04T19:51:42.161Z,13.90
2022-10-04T19:54:15.850Z,13.98
2022-10-04T19:56:50.486Z,13.73
2022-10-04T19:59:24.103Z,13.76
2022-10-04T20:01:53.466Z,13.59
2022-10-04T20:04:41.047Z,13.48
2022-10-04T20:07:22.524Z,13.03
2022-10-04T20:09:58.601Z,13.13
2022-10-04T20:12:35.840Z,12.92
2022-10-04T20:15:27.465Z,13.10
2022-10-04T20:18:01.602Z,13.10
2022-10-04T20:21:03.905Z,13.08
2022-10-04T20:23:56.740Z,13.16
2022-10-04T20:27:05.138Z,13.17
2022-10-04T20:30:07.907Z,13.12
2022-10-04T20:32:59.097Z,13.03
2022-10-04T20:36:08.606Z,13.17
2022-10-04T20:38:53.618Z,12.99
2022-10-04T20:42:23.798Z,12.86
2022-10-04T20:45:28.312Z,12.45
2022-10-04T20:47:58.679Z,12.36
2022-10-04T20:50:36.339Z,12.33
2022-10-04T20:53:08.529Z,12.23
2022-10-04T20:55:43.428Z,12.38
2022-10-04T20:58:32.473Z,12.34
2022-10-04T21:01:16.778Z,12.11
2022-10-04T21:03:45.415Z,12.19
2022-10-04T21:06:14.489Z,12.02
2022-10-04T21:08:42.977Z,12.09
2022-10-04T21:11:21.275Z,12.12
2022-10-04T21:14:06.562Z,12.01
2022-10-04T21:16:45.419Z,12.06
2022-10-04T21:19:45.629Z,12.20
2022-10-04T21:22:34.536Z,12.20
2022-10-04T21:25:04.419Z,12.11
2022-10-04T21:27:38.948Z,12.15
2022-10-04T21:30:14.847Z,12.18
2022-10-04T21:32:45.797Z,12.22
2022-10-04T21:35:17.486Z,12.33
2022-10-04T21:37:48.981Z,12.31
2022-10-04T21:40:17.738Z,12.33
2022-10-04T21:42:50.884Z,12.37
2022-10-04T21:45:19.003Z,12.17
2022-10-04T21:47:49.076Z,12.09
2022-10-04T21:50:17.817Z,12.13
2022-10-04T21:52:46.065Z,12.07
2022-10-04T21:55:15.237Z,12.14
2022-10-04T21:57:43.928Z,12.27
2022-10-04T22:00:13.291Z,12.19
2022-10-04T22:02:42.188Z,12.20
2022-10-04T22:05:12.754Z,12.28
2022-10-04T22:07:41.684Z,12.27
2022-10-04T22:10:10.275Z,12.25
2022-10-04T22:12:38.542Z,12.29
2022-10-04T22:15:08.532Z,12.22
2022-10-04T22:17:38.416Z,12.27
2022-10-04T22:20:07.957Z,12.21
2022-10-04T22:22:39.991Z,12.17
2022-10-04T22:25:16.166Z,12.23
2022-10-04T22:27:45.379Z,12.17
2022-10-04T22:30:23.844Z,12.14
2022-10-04T22:32:56.716Z,12.18
2022-10-04T22:35:32.017Z,12.15
2022-10-04T22:38:02.335Z,12.00
2022-10-04T22:40:31.476Z,12.01
2022-10-04T22:43:01.119Z,12.09
2022-10-04T22:45:33.604Z,12.11
2022-10-04T22:48:12.002Z,12.03
2022-10-04T22:50:40.469Z,11.95
2022-10-04T22:53:18.421Z,12.02
2022-10-04T22:55:47.071Z,12.10
2022-10-04T22:58:17.204Z,12.11
2022-10-04T23:00:48.971Z,12.20
2022-10-04T23:03:26.656Z,12.06
2022-10-04T23:05:55.054Z,11.96
2022-10-04T23:08:28.125Z,12.06
2022-10-04T23:11:00.940Z,12.11
2022-10-04T23:13:29.576Z,12.02
2022-10-04T23:16:00.715Z,11.92
2022-10-04T23:18:32.278Z,11.82
2022-10-04T23:21:03.708Z,12.02
2022-10-04T23:23:36.331Z,11.91
2022-10-04T23:26:14.329Z,11.81
2022-10-04T23:28:42.926Z,11.64
2022-10-04T23:31:19.161Z,11.65
2022-10-04T23:33:51.007Z,11.83
2022-10-04T23:36:20.368Z,11.57
2022-10-04T23:38:53.037Z,11.70
2022-10-04T23:41:23.095Z,11.50
2022-10-04T23:43:51.832Z,11.52
2022-10-04T23:46:23.506Z,11.62
2022-10-04T23:48:51.675Z,11.53
2022-10-04T23:51:21.383Z,11.63
2022-10-04T23:53:53.039Z,11.63
2022-10-04T23:56:26.068Z,11.77
2022-10-04T23:59:00.207Z,11.84
